sensor_id;sensor_type;location;lat;lon;timestamp;P1;durP1;ratioP1;P2;durP2;ratioP2
15281;SDS011;7742;44.320;19.820;2024-03-02T00:01:56;16.97;;;15.83;;
15281;SDS011;7742;44.320;19.820;2024-03-02T00:04:23;16.80;;;15.70;;
15281;SDS011;7742;44.320;19.820;2024-03-02T00:06:52;14.33;;;13.33;;
15281;SDS011;7742;44.320;19.820;2024-03-02T00:09:19;17.27;;;16.07;;
15281;SDS011;7742;44.320;19.820;2024-03-02T00:11:46;17.53;;;16.33;;
15281;SDS011;7742;44.320;19.820;2024-03-02T00:14:13;17.63;;;16.33;;
15281;SDS011;7742;44.320;19.820;2024-03-02T00:16:41;15.67;;;14.57;;
15281;SDS011;7742;44.320;19.820;2024-03-02T00:19:08;15.23;;;14.23;;
15281;SDS011;7742;44.320;19.820;2024-03-02T00:21:35;17.37;;;16.17;;
15281;SDS011;7742;44.320;19.820;2024-03-02T00:24:06;17.57;;;16.37;;
15281;SDS011;7742;44.320;19.820;2024-03-02T00:26:35;16.43;;;15.23;;
15281;SDS011;7742;44.320;19.820;2024-03-02T00:29:02;16.53;;;15.40;;
15281;SDS011;7742;44.320;19.820;2024-03-02T00:31:30;16.40;;;15.20;;
15281;SDS011;7742;44.320;19.820;2024-03-02T00:33:58;17.10;;;15.70;;
15281;SDS011;7742;44.320;19.820;2024-03-02T00:36:28;17.50;;;16.23;;
15281;SDS011;7742;44.320;19.820;2024-03-02T00:38:54;16.97;;;15.63;;
15281;SDS011;7742;44.320;19.820;2024-03-02T00:41:23;15.20;;;14.20;;
15281;SDS011;7742;44.320;19.820;2024-03-02T00:43:54;16.37;;;15.17;;
15281;SDS011;7742;44.320;19.820;2024-03-02T00:46:23;15.13;;;14.10;;
15281;SDS011;7742;44.320;19.820;2024-03-02T00:48:54;17.00;;;15.73;;
15281;SDS011;7742;44.320;19.820;2024-03-02T00:51:21;16.63;;;15.53;;
15281;SDS011;7742;44.320;19.820;2024-03-02T00:53:48;16.83;;;15.63;;
15281;SDS011;7742;44.320;19.820;2024-03-02T00:56:16;17.13;;;15.93;;
15281;SDS011;7742;44.320;19.820;2024-03-02T00:58:44;17.30;;;16.10;;
15281;SDS011;7742;44.320;19.820;2024-03-02T01:01:11;16.87;;;15.63;;
15281;SDS011;7742;44.320;19.820;2024-03-02T01:03:38;19.50;;;18.20;;
15281;SDS011;7742;44.320;19.820;2024-03-02T01:06:06;17.97;;;16.60;;
15281;SDS011;7742;44.320;19.820;2024-03-02T01:08:34;18.50;;;17.00;;
15281;SDS011;7742;44.320;19.820;2024-03-02T01:11:01;19.17;;;17.43;;
15281;SDS011;7742;44.320;19.820;2024-03-02T01:13:28;18.60;;;17.30;;
15281;SDS011;7742;44.320;19.820;2024-03-02T01:15:56;18.90;;;17.57;;
15281;SDS011;7742;44.320;19.820;2024-03-02T01:18:23;18.03;;;16.90;;
15281;SDS011;7742;44.320;19.820;2024-03-02T01:20:50;18.77;;;17.57;;
15281;SDS011;7742;44.320;19.820;2024-03-02T01:23:18;19.57;;;18.17;;
15281;SDS011;7742;44.320;19.820;2024-03-02T01:25:45;18.97;;;17.70;;
15281;SDS011;7742;44.320;19.820;2024-03-02T01:28:12;19.27;;;17.97;;
15281;SDS011;7742;44.320;19.820;2024-03-02T01:30:39;19.20;;;17.70;;
15281;SDS011;7742;44.320;19.820;2024-03-02T01:33:08;18.20;;;16.80;;
15281;SDS011;7742;44.320;19.820;2024-03-02T01:35:34;15.83;;;14.63;;
15281;SDS011;7742;44.320;19.820;2024-03-02T01:38:02;17.73;;;16.57;;
15281;SDS011;7742;44.320;19.820;2024-03-02T01:40:31;16.80;;;15.53;;
15281;SDS011;7742;44.320;19.820;2024-03-02T01:42:58;17.80;;;16.40;;
15281;SDS011;7742;44.320;19.820;2024-03-02T01:45:26;17.60;;;16.27;;
15281;SDS011;7742;44.320;19.820;2024-03-02T01:47:53;18.47;;;17.00;;
15281;SDS011;7742;44.320;19.820;2024-03-02T01:50:28;17.90;;;16.80;;
15281;SDS011;7742;44.320;19.820;2024-03-02T01:52:55;18.83;;;17.33;;
15281;SDS011;7742;44.320;19.820;2024-03-02T01:55:24;18.73;;;17.33;;
15281;SDS011;7742;44.320;19.820;2024-03-02T01:57:51;18.60;;;17.27;;
15281;SDS011;7742;44.320;19.820;2024-03-02T02:00:19;18.93;;;17.13;;
15281;SDS011;7742;44.320;19.820;2024-03-02T02:02:46;17.10;;;15.90;;
15281;SDS011;7742;44.320;19.820;2024-03-02T02:05:13;18.00;;;16.80;;
15281;SDS011;7742;44.320;19.820;2024-03-02T02:07:42;19.03;;;17.60;;
15281;SDS011;7742;44.320;19.820;2024-03-02T02:10:09;18.30;;;16.80;;
15281;SDS011;7742;44.320;19.820;2024-03-02T02:12:36;18.50;;;16.97;;
15281;SDS011;7742;44.320;19.820;2024-03-02T02:15:03;17.90;;;16.60;;
15281;SDS011;7742;44.320;19.820;2024-03-02T02:17:30;18.20;;;16.80;;
15281;SDS011;7742;44.320;19.820;2024-03-02T02:19:57;18.43;;;16.90;;
15281;SDS011;7742;44.320;19.820;2024-03-02T02:22:26;18.20;;;16.87;;
15281;SDS011;7742;44.320;19.820;2024-03-02T02:24:53;17.80;;;16.70;;
15281;SDS011;7742;44.320;19.820;2024-03-02T02:27:20;16.27;;;14.97;;
15281;SDS011;7742;44.320;19.820;2024-03-02T02:29:46;17.80;;;16.43;;
15281;SDS011;7742;44.320;19.820;2024-03-02T02:32:13;18.03;;;16.73;;
15281;SDS011;7742;44.320;19.820;2024-03-02T02:34:40;17.37;;;16.27;;
15281;SDS011;7742;44.320;19.820;2024-03-02T02:37:09;17.17;;;15.93;;
15281;SDS011;7742;44.320;19.820;2024-03-02T02:39:39;17.23;;;15.97;;
15281;SDS011;7742;44.320;19.820;2024-03-02T02:42:05;16.83;;;15.73;;
15281;SDS011;7742;44.320;19.820;2024-03-02T02:44:33;17.80;;;16.00;;
15281;SDS011;7742;44.320;19.820;2024-03-02T02:46:59;16.97;;;15.77;;
15281;SDS011;7742;44.320;19.820;2024-03-02T02:49:26;17.30;;;16.13;;
15281;SDS011;7742;44.320;19.820;2024-03-02T02:51:53;17.20;;;15.97;;
15281;SDS011;7742;44.320;19.820;2024-03-02T02:54:20;17.10;;;15.80;;
15281;SDS011;7742;44.320;19.820;2024-03-02T02:56:49;17.63;;;16.60;;
15281;SDS011;7742;44.320;19.820;2024-03-02T02:59:16;17.97;;;16.73;;
15281;SDS011;7742;44.320;19.820;2024-03-02T03:01:44;18.00;;;16.60;;
15281;SDS011;7742;44.320;19.820;2024-03-02T03:04:23;17.27;;;15.73;;
15281;SDS011;7742;44.320;19.820;2024-03-02T03:06:50;19.40;;;17.63;;
15281;SDS011;7742;44.320;19.820;2024-03-02T03:09:17;18.80;;;17.40;;
15281;SDS011;7742;44.320;19.820;2024-03-02T03:11:43;17.90;;;16.63;;
15281;SDS011;7742;44.320;19.820;2024-03-02T03:14:36;18.87;;;17.57;;
15281;SDS011;7742;44.320;19.820;2024-03-02T03:17:03;18.27;;;16.97;;
15281;SDS011;7742;44.320;19.820;2024-03-02T03:19:33;17.03;;;15.70;;
15281;SDS011;7742;44.320;19.820;2024-03-02T03:22:15;18.43;;;17.10;;
15281;SDS011;7742;44.320;19.820;2024-03-02T03:24:57;17.93;;;16.70;;
15281;SDS011;7742;44.320;19.820;2024-03-02T03:27:25;18.03;;;16.83;;
15281;SDS011;7742;44.320;19.820;2024-03-02T03:29:54;18.83;;;17.37;;
15281;SDS011;7742;44.320;19.820;2024-03-02T03:32:21;18.27;;;16.93;;
15281;SDS011;7742;44.320;19.820;2024-03-02T03:34:48;18.40;;;16.90;;
15281;SDS011;7742;44.320;19.820;2024-03-02T03:40:27;18.10;;;16.87;;
15281;SDS011;7742;44.320;19.820;2024-03-02T03:42:54;18.50;;;17.00;;
15281;SDS011;7742;44.320;19.820;2024-03-02T03:45:23;18.30;;;17.20;;
15281;SDS011;7742;44.320;19.820;2024-03-02T03:47:52;18.93;;;17.63;;
15281;SDS011;7742;44.320;19.820;2024-03-02T03:50:19;18.33;;;17.10;;
15281;SDS011;7742;44.320;19.820;2024-03-02T03:52:46;18.67;;;17.37;;
15281;SDS011;7742;44.320;19.820;2024-03-02T03:55:13;19.57;;;18.17;;
15281;SDS011;7742;44.320;19.820;2024-03-02T03:57:40;17.90;;;16.50;;
15281;SDS011;7742;44.320;19.820;2024-03-02T04:00:07;17.90;;;16.60;;
15281;SDS011;7742;44.320;19.820;2024-03-02T04:02:37;18.33;;;17.13;;
15281;SDS011;7742;44.320;19.820;2024-03-02T04:05:04;18.57;;;17.30;;
15281;SDS011;7742;44.320;19.820;2024-03-02T04:07:34;18.57;;;17.23;;
15281;SDS011;7742;44.320;19.820;2024-03-02T04:10:06;19.80;;;18.30;;
15281;SDS011;7742;44.320;19.820;2024-03-02T04:12:33;19.27;;;17.57;;
15281;SDS011;7742;44.320;19.820;2024-03-02T04:15:00;17.70;;;16.50;;
15281;SDS011;7742;44.320;19.820;2024-03-02T04:17:29;18.93;;;17.50;;
15281;SDS011;7742;44.320;19.820;2024-03-02T04:19:59;18.47;;;17.10;;
15281;SDS011;7742;44.320;19.820;2024-03-02T04:22:26;19.07;;;17.47;;
15281;SDS011;7742;44.320;19.820;2024-03-02T04:24:53;18.93;;;17.50;;
15281;SDS011;7742;44.320;19.820;2024-03-02T04:27:20;19.67;;;18.17;;
15281;SDS011;7742;44.320;19.820;2024-03-02T04:29:46;19.17;;;17.83;;
15281;SDS011;7742;44.320;19.820;2024-03-02T04:32:14;17.07;;;15.73;;
15281;SDS011;7742;44.320;19.820;2024-03-02T04:34:40;19.07;;;17.67;;
15281;SDS011;7742;44.320;19.820;2024-03-02T04:37:10;19.20;;;17.90;;
15281;SDS011;7742;44.320;19.820;2024-03-02T04:39:39;19.30;;;17.80;;
15281;SDS011;7742;44.320;19.820;2024-03-02T04:42:06;18.00;;;16.77;;
15281;SDS011;7742;44.320;19.820;2024-03-02T04:44:33;18.37;;;17.00;;
15281;SDS011;7742;44.320;19.820;2024-03-02T04:47:00;19.17;;;17.77;;
15281;SDS011;7742;44.320;19.820;2024-03-02T04:49:27;17.80;;;16.50;;
15281;SDS011;7742;44.320;19.820;2024-03-02T04:51:54;18.53;;;17.10;;
15281;SDS011;7742;44.320;19.820;2024-03-02T04:54:22;21.53;;;19.83;;
15281;SDS011;7742;44.320;19.820;2024-03-02T04:56:49;18.60;;;17.30;;
15281;SDS011;7742;44.320;19.820;2024-03-02T04:59:16;17.93;;;16.63;;
15281;SDS011;7742;44.320;19.820;2024-03-02T05:01:42;17.93;;;16.53;;
15281;SDS011;7742;44.320;19.820;2024-03-02T05:04:09;16.73;;;15.53;;
15281;SDS011;7742;44.320;19.820;2024-03-02T05:06:37;18.60;;;17.00;;
15281;SDS011;7742;44.320;19.820;2024-03-02T05:09:04;19.07;;;17.67;;
15281;SDS011;7742;44.320;19.820;2024-03-02T05:11:32;17.60;;;16.33;;
15281;SDS011;7742;44.320;19.820;2024-03-02T05:14:35;19.50;;;18.17;;
15281;SDS011;7742;44.320;19.820;2024-03-02T05:17:02;18.93;;;17.53;;
15281;SDS011;7742;44.320;19.820;2024-03-02T05:19:29;18.13;;;16.83;;
15281;SDS011;7742;44.320;19.820;2024-03-02T05:21:56;19.80;;;18.30;;
15281;SDS011;7742;44.320;19.820;2024-03-02T05:24:23;18.53;;;17.17;;
15281;SDS011;7742;44.320;19.820;2024-03-02T05:26:54;19.07;;;17.77;;
15281;SDS011;7742;44.320;19.820;2024-03-02T05:29:21;18.77;;;17.17;;
15281;SDS011;7742;44.320;19.820;2024-03-02T05:31:47;19.93;;;18.30;;
15281;SDS011;7742;44.320;19.820;2024-03-02T05:34:14;18.30;;;17.00;;
15281;SDS011;7742;44.320;19.820;2024-03-02T05:36:41;17.67;;;16.30;;
15281;SDS011;7742;44.320;19.820;2024-03-02T05:39:08;17.70;;;16.40;;
15281;SDS011;7742;44.320;19.820;2024-03-02T05:41:36;17.43;;;15.97;;
15281;SDS011;7742;44.320;19.820;2024-03-02T05:44:05;16.87;;;15.53;;
15281;SDS011;7742;44.320;19.820;2024-03-02T05:46:32;17.97;;;16.40;;
15281;SDS011;7742;44.320;19.820;2024-03-02T05:48:59;17.73;;;16.33;;
15281;SDS011;7742;44.320;19.820;2024-03-02T05:51:26;16.93;;;15.73;;
15281;SDS011;7742;44.320;19.820;2024-03-02T05:53:53;18.70;;;17.17;;
15281;SDS011;7742;44.320;19.820;2024-03-02T05:56:20;18.40;;;17.07;;
15281;SDS011;7742;44.320;19.820;2024-03-02T05:58:47;18.13;;;16.83;;
15281;SDS011;7742;44.320;19.820;2024-03-02T06:01:27;19.13;;;17.73;;
15281;SDS011;7742;44.320;19.820;2024-03-02T06:03:55;19.53;;;18.17;;
15281;SDS011;7742;44.320;19.820;2024-03-02T06:06:24;17.57;;;16.27;;
15281;SDS011;7742;44.320;19.820;2024-03-02T06:08:50;16.87;;;15.60;;
15281;SDS011;7742;44.320;19.820;2024-03-02T06:11:30;16.87;;;15.57;;
15281;SDS011;7742;44.320;19.820;2024-03-02T06:13:57;18.57;;;17.27;;
15281;SDS011;7742;44.320;19.820;2024-03-02T06:16:24;16.80;;;15.27;;
15281;SDS011;7742;44.320;19.820;2024-03-02T06:18:54;18.30;;;16.93;;
15281;SDS011;7742;44.320;19.820;2024-03-02T06:21:23;18.23;;;16.93;;
15281;SDS011;7742;44.320;19.820;2024-03-02T06:23:50;16.83;;;15.53;;
15281;SDS011;7742;44.320;19.820;2024-03-02T06:26:16;16.17;;;14.60;;
15281;SDS011;7742;44.320;19.820;2024-03-02T06:28:43;15.57;;;14.37;;
15281;SDS011;7742;44.320;19.820;2024-03-02T06:31:10;16.20;;;14.77;;
15281;SDS011;7742;44.320;19.820;2024-03-02T06:33:37;15.50;;;14.40;;
15281;SDS011;7742;44.320;19.820;2024-03-02T06:36:07;17.63;;;16.43;;
15281;SDS011;7742;44.320;19.820;2024-03-02T06:38:34;16.60;;;15.40;;
15281;SDS011;7742;44.320;19.820;2024-03-02T06:41:01;15.73;;;14.53;;
15281;SDS011;7742;44.320;19.820;2024-03-02T06:43:28;15.40;;;14.27;;
15281;SDS011;7742;44.320;19.820;2024-03-02T06:45:55;13.43;;;12.30;;
15281;SDS011;7742;44.320;19.820;2024-03-02T06:48:22;14.20;;;13.10;;
15281;SDS011;7742;44.320;19.820;2024-03-02T06:50:49;14.90;;;13.80;;
15281;SDS011;7742;44.320;19.820;2024-03-02T06:53:18;15.67;;;14.37;;
15281;SDS011;7742;44.320;19.820;2024-03-02T06:55:46;14.67;;;13.60;;
15281;SDS011;7742;44.320;19.820;2024-03-02T06:58:13;16.10;;;14.80;;
15281;SDS011;7742;44.320;19.820;2024-03-02T07:00:41;15.70;;;14.40;;
15281;SDS011;7742;44.320;19.820;2024-03-02T07:03:07;13.10;;;11.97;;
15281;SDS011;7742;44.320;19.820;2024-03-02T07:05:35;14.70;;;13.40;;
15281;SDS011;7742;44.320;19.820;2024-03-02T07:08:01;15.50;;;14.13;;
15281;SDS011;7742;44.320;19.820;2024-03-02T07:10:31;14.73;;;13.70;;
15281;SDS011;7742;44.320;19.820;2024-03-02T07:12:58;14.47;;;13.33;;
15281;SDS011;7742;44.320;19.820;2024-03-02T07:15:25;14.30;;;13.20;;
15281;SDS011;7742;44.320;19.820;2024-03-02T07:18:09;17.43;;;15.77;;
15281;SDS011;7742;44.320;19.820;2024-03-02T07:20:36;18.90;;;17.40;;
15281;SDS011;7742;44.320;19.820;2024-03-02T07:23:04;17.83;;;16.17;;
15281;SDS011;7742;44.320;19.820;2024-03-02T07:25:32;17.30;;;15.70;;
15281;SDS011;7742;44.320;19.820;2024-03-02T07:27:59;18.80;;;17.10;;
15281;SDS011;7742;44.320;19.820;2024-03-02T07:30:26;16.60;;;15.30;;
15281;SDS011;7742;44.320;19.820;2024-03-02T07:32:53;18.73;;;17.13;;
15281;SDS011;7742;44.320;19.820;2024-03-02T07:35:20;17.90;;;16.50;;
15281;SDS011;7742;44.320;19.820;2024-03-02T07:37:51;15.50;;;14.27;;
15281;SDS011;7742;44.320;19.820;2024-03-02T07:40:18;16.30;;;14.77;;
15281;SDS011;7742;44.320;19.820;2024-03-02T07:42:47;14.80;;;13.47;;
15281;SDS011;7742;44.320;19.820;2024-03-02T07:45:14;15.40;;;14.20;;
15281;SDS011;7742;44.320;19.820;2024-03-02T07:47:41;15.80;;;14.40;;
15281;SDS011;7742;44.320;19.820;2024-03-02T07:50:08;16.87;;;15.57;;
15281;SDS011;7742;44.320;19.820;2024-03-02T07:52:35;15.30;;;13.80;;
15281;SDS011;7742;44.320;19.820;2024-03-02T07:55:02;17.03;;;15.43;;
15281;SDS011;7742;44.320;19.820;2024-03-02T07:57:30;15.77;;;14.47;;
15281;SDS011;7742;44.320;19.820;2024-03-02T07:59:58;14.30;;;13.20;;
15281;SDS011;7742;44.320;19.820;2024-03-02T08:02:26;14.80;;;13.63;;
15281;SDS011;7742;44.320;19.820;2024-03-02T08:04:52;14.70;;;13.60;;
15281;SDS011;7742;44.320;19.820;2024-03-02T08:07:19;14.03;;;12.17;;
15281;SDS011;7742;44.320;19.820;2024-03-02T08:09:46;14.27;;;13.17;;
15281;SDS011;7742;44.320;19.820;2024-03-02T08:12:13;16.13;;;14.57;;
15281;SDS011;7742;44.320;19.820;2024-03-02T08:14:40;15.00;;;13.60;;
15281;SDS011;7742;44.320;19.820;2024-03-02T08:17:09;14.40;;;13.13;;
15281;SDS011;7742;44.320;19.820;2024-03-02T08:19:36;15.23;;;14.03;;
15281;SDS011;7742;44.320;19.820;2024-03-02T08:22:04;15.07;;;13.73;;
15281;SDS011;7742;44.320;19.820;2024-03-02T08:24:31;14.10;;;12.97;;
15281;SDS011;7742;44.320;19.820;2024-03-02T08:26:58;14.73;;;13.43;;
15281;SDS011;7742;44.320;19.820;2024-03-02T08:29:25;13.03;;;12.00;;
15281;SDS011;7742;44.320;19.820;2024-03-02T08:31:52;13.90;;;12.70;;
15281;SDS011;7742;44.320;19.820;2024-03-02T08:34:21;14.27;;;13.07;;
15281;SDS011;7742;44.320;19.820;2024-03-02T08:36:48;12.93;;;11.77;;
15281;SDS011;7742;44.320;19.820;2024-03-02T08:39:15;13.40;;;12.10;;
15281;SDS011;7742;44.320;19.820;2024-03-02T08:41:42;14.23;;;12.90;;
15281;SDS011;7742;44.320;19.820;2024-03-02T08:44:09;14.70;;;13.50;;
15281;SDS011;7742;44.320;19.820;2024-03-02T08:46:36;15.40;;;14.00;;
15281;SDS011;7742;44.320;19.820;2024-03-02T08:49:03;15.83;;;14.50;;
15281;SDS011;7742;44.320;19.820;2024-03-02T08:51:32;15.13;;;13.93;;
15281;SDS011;7742;44.320;19.820;2024-03-02T08:53:59;16.27;;;14.87;;
15281;SDS011;7742;44.320;19.820;2024-03-02T08:56:26;15.40;;;14.07;;
15281;SDS011;7742;44.320;19.820;2024-03-02T08:58:52;15.63;;;14.30;;
15281;SDS011;7742;44.320;19.820;2024-03-02T09:01:20;14.70;;;13.50;;
15281;SDS011;7742;44.320;19.820;2024-03-02T09:03:47;14.87;;;13.37;;
15281;SDS011;7742;44.320;19.820;2024-03-02T09:06:14;15.67;;;14.17;;
15281;SDS011;7742;44.320;19.820;2024-03-02T09:08:43;16.53;;;15.07;;
15281;SDS011;7742;44.320;19.820;2024-03-02T09:11:10;15.57;;;14.27;;
15281;SDS011;7742;44.320;19.820;2024-03-02T09:13:38;14.87;;;13.53;;
15281;SDS011;7742;44.320;19.820;2024-03-02T09:16:05;15.53;;;14.23;;
15281;SDS011;7742;44.320;19.820;2024-03-02T09:18:32;15.47;;;14.00;;
15281;SDS011;7742;44.320;19.820;2024-03-02T09:20:59;16.20;;;14.87;;
15281;SDS011;7742;44.320;19.820;2024-03-02T09:23:26;16.50;;;15.27;;
15281;SDS011;7742;44.320;19.820;2024-03-02T09:25:55;16.80;;;15.30;;
15281;SDS011;7742;44.320;19.820;2024-03-02T09:28:22;16.23;;;14.63;;
15281;SDS011;7742;44.320;19.820;2024-03-02T09:30:49;14.67;;;13.50;;
15281;SDS011;7742;44.320;19.820;2024-03-02T09:33:16;15.40;;;14.10;;
15281;SDS011;7742;44.320;19.820;2024-03-02T09:35:43;17.37;;;15.77;;
15281;SDS011;7742;44.320;19.820;2024-03-02T09:38:09;17.90;;;16.10;;
15281;SDS011;7742;44.320;19.820;2024-03-02T09:40:36;17.17;;;15.57;;
15281;SDS011;7742;44.320;19.820;2024-03-02T09:43:05;15.93;;;14.63;;
15281;SDS011;7742;44.320;19.820;2024-03-02T09:45:32;15.23;;;13.93;;
15281;SDS011;7742;44.320;19.820;2024-03-02T09:47:59;13.77;;;12.40;;
15281;SDS011;7742;44.320;19.820;2024-03-02T09:50:26;14.90;;;13.57;;
15281;SDS011;7742;44.320;19.820;2024-03-02T09:52:53;16.17;;;14.67;;
15281;SDS011;7742;44.320;19.820;2024-03-02T09:55:20;14.47;;;12.90;;
15281;SDS011;7742;44.320;19.820;2024-03-02T09:57:47;14.47;;;13.03;;
15281;SDS011;7742;44.320;19.820;2024-03-02T10:00:17;15.43;;;14.07;;
15281;SDS011;7742;44.320;19.820;2024-03-02T10:02:43;14.13;;;12.93;;
15281;SDS011;7742;44.320;19.820;2024-03-02T10:05:11;14.40;;;13.40;;
15281;SDS011;7742;44.320;19.820;2024-03-02T10:07:38;14.80;;;13.50;;
15281;SDS011;7742;44.320;19.820;2024-03-02T10:10:14;15.10;;;13.70;;
15281;SDS011;7742;44.320;19.820;2024-03-02T10:12:41;15.57;;;14.27;;
15281;SDS011;7742;44.320;19.820;2024-03-02T10:15:08;13.97;;;12.93;;
15281;SDS011;7742;44.320;19.820;2024-03-02T10:17:36;14.60;;;13.40;;
15281;SDS011;7742;44.320;19.820;2024-03-02T10:22:51;13.73;;;12.53;;
15281;SDS011;7742;44.320;19.820;2024-03-02T10:25:30;14.07;;;12.87;;
15281;SDS011;7742;44.320;19.820;2024-03-02T10:27:58;13.93;;;12.73;;
15281;SDS011;7742;44.320;19.820;2024-03-02T10:30:26;14.27;;;13.20;;
15281;SDS011;7742;44.320;19.820;2024-03-02T10:32:54;15.77;;;14.57;;
15281;SDS011;7742;44.320;19.820;2024-03-02T10:35:22;15.43;;;14.43;;
15281;SDS011;7742;44.320;19.820;2024-03-02T10:37:49;16.57;;;15.23;;
15281;SDS011;7742;44.320;19.820;2024-03-02T10:40:16;15.47;;;14.37;;
15281;SDS011;7742;44.320;19.820;2024-03-02T10:42:43;14.43;;;13.30;;
15281;SDS011;7742;44.320;19.820;2024-03-02T10:45:12;16.50;;;15.20;;
15281;SDS011;7742;44.320;19.820;2024-03-02T10:47:39;15.33;;;14.03;;
15281;SDS011;7742;44.320;19.820;2024-03-02T10:50:08;15.83;;;14.63;;
15281;SDS011;7742;44.320;19.820;2024-03-02T10:52:35;17.63;;;16.03;;
15281;SDS011;7742;44.320;19.820;2024-03-02T10:55:02;17.13;;;15.60;;
15281;SDS011;7742;44.320;19.820;2024-03-02T10:57:32;16.27;;;15.03;;
15281;SDS011;7742;44.320;19.820;2024-03-02T11:00:03;16.23;;;14.93;;
15281;SDS011;7742;44.320;19.820;2024-03-02T11:02:30;16.07;;;14.87;;
15281;SDS011;7742;44.320;19.820;2024-03-02T11:04:57;15.53;;;14.07;;
15281;SDS011;7742;44.320;19.820;2024-03-02T11:07:28;16.00;;;14.60;;
15281;SDS011;7742;44.320;19.820;2024-03-02T11:09:57;16.30;;;14.87;;
15281;SDS011;7742;44.320;19.820;2024-03-02T11:12:26;16.33;;;15.03;;
15281;SDS011;7742;44.320;19.820;2024-03-02T11:14:55;14.60;;;13.43;;
15281;SDS011;7742;44.320;19.820;2024-03-02T11:17:22;15.03;;;13.93;;
15281;SDS011;7742;44.320;19.820;2024-03-02T11:19:50;13.70;;;12.70;;
15281;SDS011;7742;44.320;19.820;2024-03-02T11:22:17;15.10;;;13.93;;
15281;SDS011;7742;44.320;19.820;2024-03-02T11:24:49;14.70;;;13.57;;
15281;SDS011;7742;44.320;19.820;2024-03-02T11:27:58;16.80;;;15.60;;
15281;SDS011;7742;44.320;19.820;2024-03-02T11:30:06;15.60;;;14.20;;
15281;SDS011;7742;44.320;19.820;2024-03-02T11:32:33;15.73;;;14.63;;
15281;SDS011;7742;44.320;19.820;2024-03-02T11:35:00;16.73;;;15.60;;
15281;SDS011;7742;44.320;19.820;2024-03-02T11:37:28;16.13;;;14.73;;
15281;SDS011;7742;44.320;19.820;2024-03-02T11:39:57;16.10;;;14.80;;
15281;SDS011;7742;44.320;19.820;2024-03-02T11:42:25;16.30;;;14.90;;
15281;SDS011;7742;44.320;19.820;2024-03-02T11:44:52;15.77;;;14.63;;
15281;SDS011;7742;44.320;19.820;2024-03-02T11:47:23;16.33;;;15.10;;
15281;SDS011;7742;44.320;19.820;2024-03-02T11:49:50;14.90;;;13.90;;
15281;SDS011;7742;44.320;19.820;2024-03-02T11:52:17;15.57;;;14.47;;
15281;SDS011;7742;44.320;19.820;2024-03-02T11:54:45;18.17;;;16.97;;
15281;SDS011;7742;44.320;19.820;2024-03-02T11:57:19;18.10;;;16.80;;
15281;SDS011;7742;44.320;19.820;2024-03-02T11:59:46;17.03;;;15.80;;
15281;SDS011;7742;44.320;19.820;2024-03-02T12:02:14;16.80;;;15.60;;
15281;SDS011;7742;44.320;19.820;2024-03-02T12:04:42;15.47;;;14.30;;
15281;SDS011;7742;44.320;19.820;2024-03-02T12:07:10;16.37;;;15.27;;
15281;SDS011;7742;44.320;19.820;2024-03-02T12:09:37;16.60;;;15.50;;
15281;SDS011;7742;44.320;19.820;2024-03-02T12:12:05;17.27;;;15.97;;
15281;SDS011;7742;44.320;19.820;2024-03-02T12:14:33;17.17;;;15.87;;
15281;SDS011;7742;44.320;19.820;2024-03-02T12:17:01;15.97;;;14.80;;
15281;SDS011;7742;44.320;19.820;2024-03-02T12:19:28;16.13;;;15.13;;
15281;SDS011;7742;44.320;19.820;2024-03-02T12:21:55;17.60;;;16.30;;
15281;SDS011;7742;44.320;19.820;2024-03-02T12:24:22;16.97;;;15.80;;
15281;SDS011;7742;44.320;19.820;2024-03-02T12:26:49;16.90;;;15.80;;
15281;SDS011;7742;44.320;19.820;2024-03-02T12:29:17;17.43;;;16.10;;
15281;SDS011;7742;44.320;19.820;2024-03-02T12:31:46;15.60;;;14.40;;
15281;SDS011;7742;44.320;19.820;2024-03-02T12:34:14;19.83;;;18.57;;
15281;SDS011;7742;44.320;19.820;2024-03-02T12:36:42;17.00;;;15.87;;
15281;SDS011;7742;44.320;19.820;2024-03-02T12:39:09;16.77;;;15.43;;
15281;SDS011;7742;44.320;19.820;2024-03-02T12:41:36;17.70;;;16.23;;
15281;SDS011;7742;44.320;19.820;2024-03-02T12:44:04;17.63;;;16.10;;
15281;SDS011;7742;44.320;19.820;2024-03-02T12:46:31;15.20;;;14.17;;
15281;SDS011;7742;44.320;19.820;2024-03-02T12:49:04;16.77;;;15.67;;
15281;SDS011;7742;44.320;19.820;2024-03-02T12:51:31;17.60;;;16.20;;
15281;SDS011;7742;44.320;19.820;2024-03-02T12:53:58;17.53;;;16.13;;
15281;SDS011;7742;44.320;19.820;2024-03-02T12:56:25;16.20;;;15.10;;
15281;SDS011;7742;44.320;19.820;2024-03-02T12:58:53;17.67;;;16.23;;
15281;SDS011;7742;44.320;19.820;2024-03-02T13:01:20;16.73;;;15.13;;
15281;SDS011;7742;44.320;19.820;2024-03-02T13:03:48;16.40;;;15.00;;
15281;SDS011;7742;44.320;19.820;2024-03-02T13:06:16;16.10;;;14.83;;
15281;SDS011;7742;44.320;19.820;2024-03-02T13:08:44;15.93;;;14.63;;
15281;SDS011;7742;44.320;19.820;2024-03-02T13:11:11;13.57;;;12.57;;
15281;SDS011;7742;44.320;19.820;2024-03-02T13:13:38;14.17;;;12.83;;
15281;SDS011;7742;44.320;19.820;2024-03-02T13:16:07;15.20;;;13.93;;
15281;SDS011;7742;44.320;19.820;2024-03-02T13:18:34;13.30;;;12.37;;
15281;SDS011;7742;44.320;19.820;2024-03-02T13:21:01;16.80;;;15.40;;
15281;SDS011;7742;44.320;19.820;2024-03-02T13:23:30;15.07;;;14.10;;
15281;SDS011;7742;44.320;19.820;2024-03-02T13:25:57;14.80;;;13.80;;
15281;SDS011;7742;44.320;19.820;2024-03-02T13:28:24;15.23;;;14.03;;
15281;SDS011;7742;44.320;19.820;2024-03-02T13:30:51;16.03;;;14.73;;
15281;SDS011;7742;44.320;19.820;2024-03-02T13:33:18;16.77;;;15.47;;
15281;SDS011;7742;44.320;19.820;2024-03-02T13:35:48;16.70;;;15.50;;
15281;SDS011;7742;44.320;19.820;2024-03-02T13:38:15;16.60;;;15.60;;
15281;SDS011;7742;44.320;19.820;2024-03-02T13:40:43;16.83;;;15.60;;
15281;SDS011;7742;44.320;19.820;2024-03-02T13:43:10;17.60;;;16.10;;
15281;SDS011;7742;44.320;19.820;2024-03-02T13:45:37;16.33;;;15.23;;
15281;SDS011;7742;44.320;19.820;2024-03-02T13:48:05;17.47;;;16.33;;
15281;SDS011;7742;44.320;19.820;2024-03-02T13:50:32;16.60;;;15.50;;
15281;SDS011;7742;44.320;19.820;2024-03-02T13:52:59;17.33;;;15.93;;
15281;SDS011;7742;44.320;19.820;2024-03-02T13:55:25;16.73;;;15.43;;
15281;SDS011;7742;44.320;19.820;2024-03-02T13:57:54;14.50;;;13.50;;
15281;SDS011;7742;44.320;19.820;2024-03-02T14:00:21;17.10;;;16.03;;
15281;SDS011;7742;44.320;19.820;2024-03-02T14:02:48;16.90;;;15.60;;
15281;SDS011;7742;44.320;19.820;2024-03-02T14:05:15;17.03;;;15.63;;
15281;SDS011;7742;44.320;19.820;2024-03-02T14:07:42;17.23;;;15.93;;
15281;SDS011;7742;44.320;19.820;2024-03-02T14:10:09;16.70;;;15.60;;
15281;SDS011;7742;44.320;19.820;2024-03-02T14:12:36;16.73;;;15.63;;
15281;SDS011;7742;44.320;19.820;2024-03-02T14:15:05;13.37;;;12.37;;
15281;SDS011;7742;44.320;19.820;2024-03-02T14:17:33;15.33;;;14.30;;
15281;SDS011;7742;44.320;19.820;2024-03-02T14:20:00;14.30;;;13.30;;
15281;SDS011;7742;44.320;19.820;2024-03-02T14:22:27;15.67;;;14.47;;
15281;SDS011;7742;44.320;19.820;2024-03-02T14:24:54;16.10;;;14.80;;
15281;SDS011;7742;44.320;19.820;2024-03-02T14:27:21;15.53;;;14.43;;
15281;SDS011;7742;44.320;19.820;2024-03-02T14:29:48;15.37;;;14.17;;
15281;SDS011;7742;44.320;19.820;2024-03-02T14:32:16;14.40;;;13.47;;